sensor_id;sensor_type;location;lat;lon;timestamp;P1;durP1;ratioP1;P2;durP2;ratioP2
40284;SDS011;25997;50.214;19.354;2022-08-21T00:00:17;26.50;;;23.83;;
40284;SDS011;25997;50.214;19.354;2022-08-21T00:03:21;28.10;;;25.40;;
40284;SDS011;25997;50.214;19.354;2022-08-21T00:06:25;26.20;;;23.65;;
40284;SDS011;25997;50.214;19.354;2022-08-21T00:09:28;27.40;;;24.60;;
40284;SDS011;25997;50.214;19.354;2022-08-21T00:12:30;26.83;;;24.15;;
40284;SDS011;25997;50.214;19.354;2022-08-21T00:15:33;27.70;;;25.08;;
40284;SDS011;25997;50.214;19.354;2022-08-21T00:18:37;26.80;;;24.15;;
40284;SDS011;25997;50.214;19.354;2022-08-21T00:21:42;25.65;;;22.95;;
40284;SDS011;25997;50.214;19.354;2022-08-21T00:24:44;32.33;;;24.77;;
40284;SDS011;25997;50.214;19.354;2022-08-21T00:27:47;28.60;;;25.50;;
40284;SDS011;25997;50.214;19.354;2022-08-21T00:30:50;27.67;;;24.88;;
40284;SDS011;25997;50.214;19.354;2022-08-21T00:33:52;28.38;;;25.45;;
40284;SDS011;25997;50.214;19.354;2022-08-21T00:36:56;26.30;;;23.73;;
40284;SDS011;25997;50.214;19.354;2022-08-21T00:39:59;28.20;;;25.27;;
40284;SDS011;25997;50.214;19.354;2022-08-21T00:43:02;29.63;;;26.60;;
40284;SDS011;25997;50.214;19.354;2022-08-21T00:46:06;28.73;;;25.75;;
40284;SDS011;25997;50.214;19.354;2022-08-21T00:49:09;28.73;;;25.85;;
40284;SDS011;25997;50.214;19.354;2022-08-21T00:52:15;32.88;;;26.95;;
40284;SDS011;25997;50.214;19.354;2022-08-21T00:55:21;29.90;;;26.25;;
40284;SDS011;25997;50.214;19.354;2022-08-21T00:58:24;30.45;;;27.27;;
40284;SDS011;25997;50.214;19.354;2022-08-21T01:01:29;31.77;;;28.42;;
40284;SDS011;25997;50.214;19.354;2022-08-21T01:04:31;34.33;;;28.52;;
40284;SDS011;25997;50.214;19.354;2022-08-21T01:07:36;31.95;;;28.65;;
40284;SDS011;25997;50.214;19.354;2022-08-21T01:10:39;32.58;;;27.90;;
40284;SDS011;25997;50.214;19.354;2022-08-21T01:13:42;32.33;;;28.65;;
40284;SDS011;25997;50.214;19.354;2022-08-21T01:16:48;30.48;;;27.25;;
40284;SDS011;25997;50.214;19.354;2022-08-21T01:19:56;30.83;;;27.92;;
40284;SDS011;25997;50.214;19.354;2022-08-21T01:23:02;30.77;;;27.70;;
40284;SDS011;25997;50.214;19.354;2022-08-21T01:26:06;28.15;;;25.15;;
40284;SDS011;25997;50.214;19.354;2022-08-21T01:29:09;27.63;;;24.73;;
40284;SDS011;25997;50.214;19.354;2022-08-21T01:32:17;29.30;;;26.40;;
40284;SDS011;25997;50.214;19.354;2022-08-21T01:35:21;29.60;;;26.40;;
40284;SDS011;25997;50.214;19.354;2022-08-21T01:38:25;33.30;;;26.00;;
40284;SDS011;25997;50.214;19.354;2022-08-21T01:41:28;28.08;;;24.88;;
40284;SDS011;25997;50.214;19.354;2022-08-21T01:44:31;27.38;;;24.60;;
40284;SDS011;25997;50.214;19.354;2022-08-21T01:47:33;28.08;;;25.08;;
40284;SDS011;25997;50.214;19.354;2022-08-21T01:50:36;28.10;;;25.17;;
40284;SDS011;25997;50.214;19.354;2022-08-21T01:53:40;33.42;;;26.30;;
40284;SDS011;25997;50.214;19.354;2022-08-21T01:56:45;30.13;;;27.00;;
40284;SDS011;25997;50.214;19.354;2022-08-21T01:59:50;27.98;;;25.13;;
40284;SDS011;25997;50.214;19.354;2022-08-21T02:02:53;27.08;;;24.30;;
40284;SDS011;25997;50.214;19.354;2022-08-21T02:05:56;29.60;;;26.35;;
40284;SDS011;25997;50.214;19.354;2022-08-21T02:09:00;28.75;;;25.67;;
40284;SDS011;25997;50.214;19.354;2022-08-21T02:12:03;27.08;;;24.48;;
40284;SDS011;25997;50.214;19.354;2022-08-21T02:15:06;27.50;;;24.58;;
40284;SDS011;25997;50.214;19.354;2022-08-21T02:18:10;27.27;;;24.70;;
40284;SDS011;25997;50.214;19.354;2022-08-21T02:21:13;27.42;;;24.55;;
40284;SDS011;25997;50.214;19.354;2022-08-21T02:24:17;28.23;;;25.20;;
40284;SDS011;25997;50.214;19.354;2022-08-21T02:27:20;26.40;;;23.60;;
40284;SDS011;25997;50.214;19.354;2022-08-21T02:30:30;26.92;;;24.17;;
40284;SDS011;25997;50.214;19.354;2022-08-21T02:33:38;27.75;;;24.55;;
40284;SDS011;25997;50.214;19.354;2022-08-21T02:36:41;26.80;;;23.17;;
40284;SDS011;25997;50.214;19.354;2022-08-21T02:39:45;26.92;;;23.88;;
40284;SDS011;25997;50.214;19.354;2022-08-21T02:42:47;29.00;;;25.15;;
40284;SDS011;25997;50.214;19.354;2022-08-21T02:45:50;29.48;;;25.98;;
40284;SDS011;25997;50.214;19.354;2022-08-21T02:48:54;27.92;;;25.02;;
40284;SDS011;25997;50.214;19.354;2022-08-21T02:51:57;27.35;;;24.42;;
40284;SDS011;25997;50.214;19.354;2022-08-21T02:55:01;26.10;;;23.55;;
40284;SDS011;25997;50.214;19.354;2022-08-21T02:58:06;27.92;;;24.40;;
40284;SDS011;25997;50.214;19.354;2022-08-21T03:01:10;26.83;;;23.42;;
40284;SDS011;25997;50.214;19.354;2022-08-21T03:04:13;29.10;;;25.33;;
40284;SDS011;25997;50.214;19.354;2022-08-21T03:07:16;28.42;;;24.60;;
40284;SDS011;25997;50.214;19.354;2022-08-21T03:10:21;30.23;;;25.10;;
40284;SDS011;25997;50.214;19.354;2022-08-21T03:13:24;27.50;;;24.25;;
40284;SDS011;25997;50.214;19.354;2022-08-21T03:16:26;34.10;;;26.88;;
40284;SDS011;25997;50.214;19.354;2022-08-21T03:19:29;26.75;;;23.85;;
40284;SDS011;25997;50.214;19.354;2022-08-21T03:22:31;28.48;;;25.63;;
40284;SDS011;25997;50.214;19.354;2022-08-21T03:25:35;28.50;;;25.35;;
40284;SDS011;25997;50.214;19.354;2022-08-21T03:28:38;30.85;;;24.73;;
40284;SDS011;25997;50.214;19.354;2022-08-21T03:31:41;26.55;;;23.85;;
40284;SDS011;25997;50.214;19.354;2022-08-21T03:34:43;30.08;;;25.30;;
40284;SDS011;25997;50.214;19.354;2022-08-21T03:37:46;31.63;;;26.35;;
40284;SDS011;25997;50.214;19.354;2022-08-21T03:40:50;33.47;;;26.40;;
40284;SDS011;25997;50.214;19.354;2022-08-21T03:43:52;30.90;;;25.85;;
40284;SDS011;25997;50.214;19.354;2022-08-21T03:46:55;32.95;;;27.20;;
40284;SDS011;25997;50.214;19.354;2022-08-21T03:49:58;31.85;;;28.08;;
40284;SDS011;25997;50.214;19.354;2022-08-21T03:53:01;34.30;;;28.55;;
40284;SDS011;25997;50.214;19.354;2022-08-21T03:56:05;35.45;;;30.55;;
40284;SDS011;25997;50.214;19.354;2022-08-21T03:59:08;30.45;;;27.25;;
40284;SDS011;25997;50.214;19.354;2022-08-21T04:02:11;30.88;;;27.27;;
40284;SDS011;25997;50.214;19.354;2022-08-21T04:05:18;32.00;;;26.83;;
40284;SDS011;25997;50.214;19.354;2022-08-21T04:08:28;30.13;;;27.02;;
40284;SDS011;25997;50.214;19.354;2022-08-21T04:11:32;29.67;;;26.75;;
40284;SDS011;25997;50.214;19.354;2022-08-21T04:14:35;31.00;;;27.83;;
40284;SDS011;25997;50.214;19.354;2022-08-21T04:17:37;30.48;;;27.38;;
40284;SDS011;25997;50.214;19.354;2022-08-21T04:20:40;30.20;;;27.35;;
40284;SDS011;25997;50.214;19.354;2022-08-21T04:23:45;30.52;;;26.65;;
40284;SDS011;25997;50.214;19.354;2022-08-21T04:26:49;30.92;;;27.85;;
40284;SDS011;25997;50.214;19.354;2022-08-21T04:29:51;31.73;;;27.92;;
40284;SDS011;25997;50.214;19.354;2022-08-21T04:32:54;35.63;;;29.15;;
40284;SDS011;25997;50.214;19.354;2022-08-21T04:35:58;29.75;;;26.27;;
40284;SDS011;25997;50.214;19.354;2022-08-21T04:39:00;31.23;;;27.30;;
40284;SDS011;25997;50.214;19.354;2022-08-21T04:42:05;31.50;;;28.13;;
40284;SDS011;25997;50.214;19.354;2022-08-21T04:45:08;33.20;;;28.95;;
40284;SDS011;25997;50.214;19.354;2022-08-21T04:48:11;31.05;;;27.95;;
40284;SDS011;25997;50.214;19.354;2022-08-21T04:51:15;30.38;;;27.33;;
40284;SDS011;25997;50.214;19.354;2022-08-21T04:54:20;32.17;;;27.58;;
40284;SDS011;25997;50.214;19.354;2022-08-21T04:57:25;31.20;;;27.77;;
40284;SDS011;25997;50.214;19.354;2022-08-21T05:00:28;32.22;;;26.52;;
40284;SDS011;25997;50.214;19.354;2022-08-21T05:03:32;30.88;;;27.55;;
40284;SDS011;25997;50.214;19.354;2022-08-21T05:06:36;30.20;;;27.20;;
40284;SDS011;25997;50.214;19.354;2022-08-21T05:09:41;29.55;;;26.10;;
40284;SDS011;25997;50.214;19.354;2022-08-21T05:12:45;31.13;;;27.77;;
40284;SDS011;25997;50.214;19.354;2022-08-21T05:15:48;29.05;;;26.02;;
40284;SDS011;25997;50.214;19.354;2022-08-21T05:18:50;30.30;;;27.27;;
40284;SDS011;25997;50.214;19.354;2022-08-21T05:21:53;32.00;;;28.55;;
40284;SDS011;25997;50.214;19.354;2022-08-21T05:24:56;39.60;;;28.77;;
40284;SDS011;25997;50.214;19.354;2022-08-21T05:28:00;31.98;;;28.50;;
40284;SDS011;25997;50.214;19.354;2022-08-21T05:31:03;32.05;;;28.52;;
40284;SDS011;25997;50.214;19.354;2022-08-21T05:34:06;28.75;;;25.75;;
40284;SDS011;25997;50.214;19.354;2022-08-21T05:37:10;30.83;;;27.65;;
40284;SDS011;25997;50.214;19.354;2022-08-21T05:40:12;31.67;;;27.25;;
40284;SDS011;25997;50.214;19.354;2022-08-21T05:43:17;30.25;;;27.13;;
40284;SDS011;25997;50.214;19.354;2022-08-21T05:46:20;33.97;;;26.15;;
40284;SDS011;25997;50.214;19.354;2022-08-21T05:49:22;30.00;;;26.55;;
40284;SDS011;25997;50.214;19.354;2022-08-21T05:52:25;28.40;;;25.27;;
40284;SDS011;25997;50.214;19.354;2022-08-21T05:55:27;29.63;;;25.90;;
40284;SDS011;25997;50.214;19.354;2022-08-21T05:58:32;28.85;;;25.48;;
40284;SDS011;25997;50.214;19.354;2022-08-21T06:01:35;32.67;;;26.48;;
40284;SDS011;25997;50.214;19.354;2022-08-21T06:04:37;29.40;;;26.25;;
40284;SDS011;25997;50.214;19.354;2022-08-21T06:07:40;28.55;;;25.40;;
40284;SDS011;25997;50.214;19.354;2022-08-21T06:10:43;29.60;;;25.55;;
40284;SDS011;25997;50.214;19.354;2022-08-21T06:13:47;28.70;;;25.30;;
40284;SDS011;25997;50.214;19.354;2022-08-21T06:16:50;30.63;;;26.70;;
40284;SDS011;25997;50.214;19.354;2022-08-21T06:19:53;29.67;;;25.95;;
40284;SDS011;25997;50.214;19.354;2022-08-21T06:22:56;26.77;;;24.05;;
40284;SDS011;25997;50.214;19.354;2022-08-21T06:25:59;28.50;;;25.10;;
40284;SDS011;25997;50.214;19.354;2022-08-21T06:29:03;28.77;;;25.15;;
40284;SDS011;25997;50.214;19.354;2022-08-21T06:32:06;27.52;;;24.73;;
40284;SDS011;25997;50.214;19.354;2022-08-21T06:35:12;27.45;;;24.15;;
40284;SDS011;25997;50.214;19.354;2022-08-21T06:38:15;27.85;;;25.05;;
40284;SDS011;25997;50.214;19.354;2022-08-21T06:41:17;28.45;;;25.38;;
40284;SDS011;25997;50.214;19.354;2022-08-21T06:44:22;28.42;;;24.98;;
40284;SDS011;25997;50.214;19.354;2022-08-21T06:47:24;26.77;;;22.73;;
40284;SDS011;25997;50.214;19.354;2022-08-21T06:50:27;30.08;;;26.80;;
40284;SDS011;25997;50.214;19.354;2022-08-21T06:53:30;30.10;;;26.70;;
40284;SDS011;25997;50.214;19.354;2022-08-21T06:56:32;27.02;;;24.30;;
40284;SDS011;25997;50.214;19.354;2022-08-21T06:59:38;29.50;;;26.65;;
40284;SDS011;25997;50.214;19.354;2022-08-21T07:02:41;29.40;;;26.27;;
40284;SDS011;25997;50.214;19.354;2022-08-21T07:05:43;30.80;;;26.80;;
40284;SDS011;25997;50.214;19.354;2022-08-21T07:08:46;34.70;;;29.58;;
40284;SDS011;25997;50.214;19.354;2022-08-21T07:11:49;35.22;;;31.50;;
40284;SDS011;25997;50.214;19.354;2022-08-21T07:14:55;37.90;;;30.67;;
40284;SDS011;25997;50.214;19.354;2022-08-21T07:17:57;36.95;;;33.08;;
40284;SDS011;25997;50.214;19.354;2022-08-21T07:21:01;34.83;;;31.00;;
40284;SDS011;25997;50.214;19.354;2022-08-21T07:24:04;38.22;;;34.17;;
40284;SDS011;25997;50.214;19.354;2022-08-21T07:27:06;39.30;;;35.05;;
40284;SDS011;25997;50.214;19.354;2022-08-21T07:30:11;38.58;;;34.60;;
40284;SDS011;25997;50.214;19.354;2022-08-21T07:33:14;39.42;;;35.20;;
40284;SDS011;25997;50.214;19.354;2022-08-21T07:36:16;41.88;;;36.90;;
40284;SDS011;25997;50.214;19.354;2022-08-21T07:39:19;41.63;;;37.28;;
40284;SDS011;25997;50.214;19.354;2022-08-21T07:42:21;42.35;;;36.78;;
40284;SDS011;25997;50.214;19.354;2022-08-21T07:45:25;44.97;;;38.55;;
40284;SDS011;25997;50.214;19.354;2022-08-21T07:48:28;46.25;;;41.47;;
40284;SDS011;25997;50.214;19.354;2022-08-21T07:51:30;42.53;;;37.92;;
40284;SDS011;25997;50.214;19.354;2022-08-21T07:54:35;15.93;;;14.25;;
40284;SDS011;25997;50.214;19.354;2022-08-21T07:57:37;11.15;;;10.05;;
40284;SDS011;25997;50.214;19.354;2022-08-21T08:00:41;11.27;;;9.02;;
40284;SDS011;25997;50.214;19.354;2022-08-21T08:03:44;9.68;;;8.68;;
40284;SDS011;25997;50.214;19.354;2022-08-21T08:06:47;10.90;;;7.95;;
40284;SDS011;25997;50.214;19.354;2022-08-21T08:09:50;10.98;;;7.20;;
40284;SDS011;25997;50.214;19.354;2022-08-21T08:12:53;8.00;;;6.03;;
40284;SDS011;25997;50.214;19.354;2022-08-21T08:15:57;9.75;;;5.32;;
40284;SDS011;25997;50.214;19.354;2022-08-21T08:19:00;9.85;;;5.70;;
40284;SDS011;25997;50.214;19.354;2022-08-21T08:22:11;7.80;;;5.57;;
40284;SDS011;25997;50.214;19.354;2022-08-21T08:25:15;8.57;;;5.25;;
40284;SDS011;25997;50.214;19.354;2022-08-21T08:28:18;7.55;;;4.72;;
40284;SDS011;25997;50.214;19.354;2022-08-21T08:31:23;7.72;;;5.03;;
40284;SDS011;25997;50.214;19.354;2022-08-21T08:34:26;5.97;;;4.60;;
40284;SDS011;25997;50.214;19.354;2022-08-21T08:37:28;8.52;;;4.40;;
40284;SDS011;25997;50.214;19.354;2022-08-21T08:40:32;8.40;;;4.93;;
40284;SDS011;25997;50.214;19.354;2022-08-21T08:43:39;5.18;;;4.38;;
40284;SDS011;25997;50.214;19.354;2022-08-21T08:46:47;6.15;;;3.50;;
40284;SDS011;25997;50.214;19.354;2022-08-21T08:49:54;4.50;;;3.25;;
40284;SDS011;25997;50.214;19.354;2022-08-21T08:53:04;3.50;;;3.08;;
40284;SDS011;25997;50.214;19.354;2022-08-21T08:56:07;4.45;;;3.78;;
40284;SDS011;25997;50.214;19.354;2022-08-21T08:59:13;5.00;;;4.15;;
40284;SDS011;25997;50.214;19.354;2022-08-21T09:05:25;6.25;;;5.30;;
40284;SDS011;25997;50.214;19.354;2022-08-21T09:08:35;7.50;;;5.75;;
40284;SDS011;25997;50.214;19.354;2022-08-21T09:11:52;7.85;;;5.65;;
40284;SDS011;25997;50.214;19.354;2022-08-21T09:15:03;7.75;;;6.20;;
40284;SDS011;25997;50.214;19.354;2022-08-21T09:18:19;5.55;;;5.05;;
40284;SDS011;25997;50.214;19.354;2022-08-21T09:21:35;7.22;;;5.40;;
40284;SDS011;25997;50.214;19.354;2022-08-21T09:24:47;7.80;;;5.60;;
40284;SDS011;25997;50.214;19.354;2022-08-21T09:27:58;7.10;;;4.72;;
40284;SDS011;25997;50.214;19.354;2022-08-21T09:31:01;7.05;;;5.05;;
40284;SDS011;25997;50.214;19.354;2022-08-21T09:34:10;5.93;;;4.30;;
40284;SDS011;25997;50.214;19.354;2022-08-21T09:37:17;6.85;;;4.63;;
40284;SDS011;25997;50.214;19.354;2022-08-21T09:40:26;4.95;;;3.33;;
40284;SDS011;25997;50.214;19.354;2022-08-21T09:43:33;4.20;;;3.45;;
40284;SDS011;25997;50.214;19.354;2022-08-21T09:46:35;6.78;;;4.07;;
40284;SDS011;25997;50.214;19.354;2022-08-21T09:49:40;5.80;;;3.42;;
40284;SDS011;25997;50.214;19.354;2022-08-21T09:52:45;4.05;;;3.08;;
40284;SDS011;25997;50.214;19.354;2022-08-21T09:55:51;5.88;;;3.00;;
40284;SDS011;25997;50.214;19.354;2022-08-21T09:59:16;4.20;;;3.08;;
40284;SDS011;25997;50.214;19.354;2022-08-21T10:02:23;4.93;;;2.78;;
40284;SDS011;25997;50.214;19.354;2022-08-21T10:05:30;3.70;;;2.60;;
40284;SDS011;25997;50.214;19.354;2022-08-21T10:08:33;5.97;;;2.50;;
40284;SDS011;25997;50.214;19.354;2022-08-21T10:11:36;3.67;;;2.40;;
40284;SDS011;25997;50.214;19.354;2022-08-21T10:14:44;3.47;;;2.08;;
40284;SDS011;25997;50.214;19.354;2022-08-21T10:17:56;3.53;;;1.90;;
40284;SDS011;25997;50.214;19.354;2022-08-21T10:21:08;2.80;;;1.70;;
40284;SDS011;25997;50.214;19.354;2022-08-21T10:24:19;4.10;;;1.90;;
40284;SDS011;25997;50.214;19.354;2022-08-21T10:27:30;3.90;;;1.60;;
40284;SDS011;25997;50.214;19.354;2022-08-21T10:30:41;4.25;;;1.20;;
40284;SDS011;25997;50.214;19.354;2022-08-21T10:33:52;2.97;;;1.48;;
40284;SDS011;25997;50.214;19.354;2022-08-21T10:37:17;4.80;;;2.10;;
40284;SDS011;25997;50.214;19.354;2022-08-21T10:40:28;2.92;;;1.40;;
40284;SDS011;25997;50.214;19.354;2022-08-21T10:43:34;3.45;;;2.00;;
40284;SDS011;25997;50.214;19.354;2022-08-21T10:46:46;4.00;;;1.90;;
40284;SDS011;25997;50.214;19.354;2022-08-21T10:49:55;2.25;;;1.60;;
40284;SDS011;25997;50.214;19.354;2022-08-21T10:53:15;3.70;;;2.05;;
40284;SDS011;25997;50.214;19.354;2022-08-21T10:56:24;3.58;;;1.80;;
40284;SDS011;25997;50.214;19.354;2022-08-21T10:59:29;2.22;;;1.58;;
40284;SDS011;25997;50.214;19.354;2022-08-21T11:02:39;3.10;;;1.27;;
40284;SDS011;25997;50.214;19.354;2022-08-21T11:05:46;2.65;;;1.70;;
40284;SDS011;25997;50.214;19.354;2022-08-21T11:08:52;3.67;;;1.92;;
40284;SDS011;25997;50.214;19.354;2022-08-21T11:12:01;2.38;;;1.45;;
40284;SDS011;25997;50.214;19.354;2022-08-21T11:15:14;2.47;;;1.58;;
40284;SDS011;25997;50.214;19.354;2022-08-21T11:18:24;3.90;;;2.00;;
40284;SDS011;25997;50.214;19.354;2022-08-21T11:21:34;1.73;;;1.20;;
40284;SDS011;25997;50.214;19.354;2022-08-21T11:24:42;2.47;;;1.70;;
40284;SDS011;25997;50.214;19.354;2022-08-21T11:27:52;2.88;;;1.30;;
40284;SDS011;25997;50.214;19.354;2022-08-21T11:31:02;3.70;;;1.40;;
40284;SDS011;25997;50.214;19.354;2022-08-21T11:34:20;3.15;;;1.70;;
40284;SDS011;25997;50.214;19.354;2022-08-21T11:37:42;1.60;;;1.30;;
40284;SDS011;25997;50.214;19.354;2022-08-21T11:40:55;3.30;;;1.63;;
40284;SDS011;25997;50.214;19.354;2022-08-21T11:44:09;1.70;;;1.27;;
40284;SDS011;25997;50.214;19.354;2022-08-21T11:47:19;4.13;;;1.95;;
40284;SDS011;25997;50.214;19.354;2022-08-21T11:50:32;2.65;;;1.55;;
40284;SDS011;25997;50.214;19.354;2022-08-21T11:53:38;4.22;;;1.58;;
40284;SDS011;25997;50.214;19.354;2022-08-21T11:56:53;3.33;;;1.70;;
40284;SDS011;25997;50.214;19.354;2022-08-21T12:00:03;2.63;;;1.63;;
40284;SDS011;25997;50.214;19.354;2022-08-21T12:03:13;3.45;;;1.60;;
40284;SDS011;25997;50.214;19.354;2022-08-21T12:06:27;2.10;;;1.60;;
40284;SDS011;25997;50.214;19.354;2022-08-21T12:09:32;3.25;;;1.73;;
40284;SDS011;25997;50.214;19.354;2022-08-21T12:12:39;3.65;;;1.90;;
40284;SDS011;25997;50.214;19.354;2022-08-21T12:15:43;2.88;;;1.67;;
40284;SDS011;25997;50.214;19.354;2022-08-21T12:18:45;2.83;;;1.80;;
40284;SDS011;25997;50.214;19.354;2022-08-21T12:21:49;3.30;;;1.65;;
40284;SDS011;25997;50.214;19.354;2022-08-21T12:25:02;3.78;;;1.80;;
40284;SDS011;25997;50.214;19.354;2022-08-21T12:28:09;2.95;;;1.60;;
40284;SDS011;25997;50.214;19.354;2022-08-21T12:31:21;3.75;;;1.70;;
40284;SDS011;25997;50.214;19.354;2022-08-21T12:34:28;3.15;;;1.75;;
40284;SDS011;25997;50.214;19.354;2022-08-21T12:37:37;3.13;;;1.80;;
40284;SDS011;25997;50.214;19.354;2022-08-21T12:40:43;3.75;;;1.80;;
40284;SDS011;25997;50.214;19.354;2022-08-21T12:43:52;2.67;;;1.88;;
40284;SDS011;25997;50.214;19.354;2022-08-21T12:47:01;3.58;;;1.92;;
40284;SDS011;25997;50.214;19.354;2022-08-21T12:50:07;3.40;;;2.15;;
40284;SDS011;25997;50.214;19.354;2022-08-21T12:53:15;5.07;;;2.08;;
40284;SDS011;25997;50.214;19.354;2022-08-21T12:56:30;1.40;;;1.30;;
40284;SDS011;25997;50.214;19.354;2022-08-21T12:59:38;2.65;;;1.70;;
40284;SDS011;25997;50.214;19.354;2022-08-21T13:02:43;1.63;;;1.48;;
40284;SDS011;25997;50.214;19.354;2022-08-21T13:05:50;1.85;;;1.48;;
40284;SDS011;25997;50.214;19.354;2022-08-21T13:08:55;2.15;;;1.48;;
40284;SDS011;25997;50.214;19.354;2022-08-21T13:12:06;2.53;;;1.63;;
40284;SDS011;25997;50.214;19.354;2022-08-21T13:15:11;1.80;;;1.38;;
40284;SDS011;25997;50.214;19.354;2022-08-21T13:18:22;3.60;;;1.70;;
40284;SDS011;25997;50.214;19.354;2022-08-21T13:21:30;1.80;;;1.40;;
40284;SDS011;25997;50.214;19.354;2022-08-21T13:24:35;1.67;;;1.40;;
40284;SDS011;25997;50.214;19.354;2022-08-21T13:27:39;1.88;;;1.30;;
40284;SDS011;25997;50.214;19.354;2022-08-21T13:30:44;2.30;;;1.50;;
40284;SDS011;25997;50.214;19.354;2022-08-21T13:33:50;2.60;;;1.60;;
40284;SDS011;25997;50.214;19.354;2022-08-21T13:36:54;2.30;;;1.50;;
40284;SDS011;25997;50.214;19.354;2022-08-21T13:40:00;1.98;;;1.70;;
40284;SDS011;25997;50.214;19.354;2022-08-21T13:43:02;4.63;;;2.28;;
40284;SDS011;25997;50.214;19.354;2022-08-21T13:46:09;2.40;;;2.20;;
40284;SDS011;25997;50.214;19.354;2022-08-21T13:49:14;3.20;;;2.90;;
40284;SDS011;25997;50.214;19.354;2022-08-21T13:52:23;3.78;;;3.38;;
40284;SDS011;25997;50.214;19.354;2022-08-21T13:55:34;3.20;;;2.90;;
40284;SDS011;25997;50.214;19.354;2022-08-21T13:58:41;5.75;;;2.70;;
40284;SDS011;25997;50.214;19.354;2022-08-21T14:01:51;3.70;;;2.60;;
40284;SDS011;25997;50.214;19.354;2022-08-21T14:05:00;3.22;;;2.67;;
40284;SDS011;25997;50.214;19.354;2022-08-21T14:08:05;4.80;;;2.83;;
40284;SDS011;25997;50.214;19.354;2022-08-21T14:11:11;3.78;;;2.90;;
40284;SDS011;25997;50.214;19.354;2022-08-21T14:14:16;3.30;;;2.95;;
40284;SDS011;25997;50.214;19.354;2022-08-21T14:17:28;3.70;;;2.58;;
40284;SDS011;25997;50.214;19.354;2022-08-21T14:20:36;4.47;;;2.60;;
40284;SDS011;25997;50.214;19.354;2022-08-21T14:23:39;3.53;;;2.85;;
40284;SDS011;25997;50.214;19.354;2022-08-21T14:26:44;3.75;;;2.72;;
40284;SDS011;25997;50.214;19.354;2022-08-21T14:29:50;3.93;;;2.90;;
40284;SDS011;25997;50.214;19.354;2022-08-21T14:33:03;5.10;;;4.55;;
40284;SDS011;25997;50.214;19.354;2022-08-21T14:36:09;9.55;;;8.65;;
40284;SDS011;25997;50.214;19.354;2022-08-21T14:39:12;9.80;;;8.90;;
40284;SDS011;25997;50.214;19.354;2022-08-21T14:42:15;11.98;;;10.88;;
40284;SDS011;25997;50.214;19.354;2022-08-21T14:45:18;10.98;;;10.07;;
40284;SDS011;25997;50.214;19.354;2022-08-21T14:48:25;10.65;;;9.75;;
40284;SDS011;25997;50.214;19.354;2022-08-21T14:51:27;11.02;;;9.93;;
40284;SDS011;25997;50.214;19.354;2022-08-21T14:54:30;12.00;;;10.82;;
40284;SDS011;25997;50.214;19.354;2022-08-21T14:57:33;10.07;;;9.10;;
40284;SDS011;25997;50.214;19.354;2022-08-21T15:00:36;10.43;;;9.43;;
40284;SDS011;25997;50.214;19.354;2022-08-21T15:03:40;9.70;;;8.85;;
40284;SDS011;25997;50.214;19.354;2022-08-21T15:06:43;10.43;;;9.52;;
40284;SDS011;25997;50.214;19.354;2022-08-21T15:09:46;9.05;;;8.25;;
40284;SDS011;25997;50.214;19.354;2022-08-21T15:12:48;9.65;;;8.10;;
40284;SDS011;25997;50.214;19.354;2022-08-21T15:15:51;7.85;;;6.85;;
40284;SDS011;25997;50.214;19.354;2022-08-21T15:18:55;8.50;;;7.80;;
40284;SDS011;25997;50.214;19.354;2022-08-21T15:21:58;11.27;;;9.13;;
40284;SDS011;25997;50.214;19.354;2022-08-21T15:25:01;7.82;;;7.00;;
40284;SDS011;25997;50.214;19.354;2022-08-21T15:28:04;7.43;;;6.13;;
40284;SDS011;25997;50.214;19.354;2022-08-21T15:31:06;8.02;;;6.97;;
40284;SDS011;25997;50.214;19.354;2022-08-21T15:34:10;8.27;;;6.80;;
40284;SDS011;25997;50.214;19.354;2022-08-21T15:37:13;7.35;;;6.65;;
40284;SDS011;25997;50.214;19.354;2022-08-21T15:40:16;7.68;;;6.35;;
40284;SDS011;25997;50.214;19.354;2022-08-21T15:43:21;7.28;;;5.78;;
40284;SDS011;25997;50.214;19.354;2022-08-21T15:46:27;6.15;;;5.43;;
40284;SDS011;25997;50.214;19.354;2022-08-21T15:49:31;8.00;;;7.05;;
40284;SDS011;25997;50.214;19.354;2022-08-21T15:52:33;9.07;;;7.65;;
40284;SDS011;25997;50.214;19.354;2022-08-21T15:55:36;10.25;;;8.23;;
40284;SDS011;25997;50.214;19.354;2022-08-21T15:58:39;17.05;;;12.40;;
40284;SDS011;25997;50.214;19.354;2022-08-21T16:01:42;10.93;;;7.85;;
40284;SDS011;25997;50.214;19.354;2022-08-21T16:04:46;7.93;;;6.65;;
40284;SDS011;25997;50.214;19.354;2022-08-21T16:07:51;8.00;;;7.15;;
40284;SDS011;25997;50.214;19.354;2022-08-21T16:10:54;8.23;;;6.53;;
40284;SDS011;25997;50.214;19.354;2022-08-21T16:13:57;14.40;;;9.07;;
40284;SDS011;25997;50.214;19.354;2022-08-21T16:17:00;8.20;;;7.20;;
40284;SDS011;25997;50.214;19.354;2022-08-21T16:20:06;7.60;;;6.03;;
40284;SDS011;25997;50.214;19.354;2022-08-21T16:23:10;8.55;;;7.00;;
40284;SDS011;25997;50.214;19.354;2022-08-21T16:26:13;7.55;;;6.25;;
40284;SDS011;25997;50.214;19.354;2022-08-21T16:29:15;7.28;;;6.25;;
40284;SDS011;25997;50.214;19.354;2022-08-21T16:32:19;6.97;;;5.47;;
40284;SDS011;25997;50.214;19.354;2022-08-21T16:35:23;7.25;;;6.10;;
40284;SDS011;25997;50.214;19.354;2022-08-21T16:38:26;7.15;;;5.65;;
40284;SDS011;25997;50.214;19.354;2022-08-21T16:41:30;4.97;;;4.22;;
40284;SDS011;25997;50.214;19.354;2022-08-21T16:44:35;5.35;;;4.22;;
40284;SDS011;25997;50.214;19.354;2022-08-21T16:47:37;5.75;;;3.88;;
40284;SDS011;25997;50.214;19.354;2022-08-21T16:50:42;5.47;;;3.97;;
40284;SDS011;25997;50.214;19.354;2022-08-21T16:53:45;5.78;;;4.40;;
40284;SDS011;25997;50.214;19.354;2022-08-21T16:56:47;5.32;;;4.50;;
40284;SDS011;25997;50.214;19.354;2022-08-21T16:59:50;5.70;;;4.55;;
40284;SDS011;25997;50.214;19.354;2022-08-21T17:02:53;5.97;;;4.88;;
40284;SDS011;25997;50.214;19.354;2022-08-21T17:05:58;5.90;;;4.10;;
40284;SDS011;25997;50.214;19.354;2022-08-21T17:09:01;6.47;;;5.00;;
40284;SDS011;25997;50.214;19.354;2022-08-21T17:12:05;5.45;;;4.95;;
40284;SDS011;25997;50.214;19.354;2022-08-21T17:15:12;6.45;;;5.15;;
40284;SDS011;25997;50.214;19.354;2022-08-21T17:18:19;6.72;;;6.13;;
40284;SDS011;25997;50.214;19.354;2022-08-21T17:21:25;7.53;;;6.13;;
40284;SDS011;25997;50.214;19.354;2022-08-21T17:24:28;6.53;;;5.90;;
40284;SDS011;25997;50.214;19.354;2022-08-21T17:27:31;7.57;;;6.78;;
40284;SDS011;25997;50.214;19.354;2022-08-21T17:30:34;8.48;;;7.53;;
40284;SDS011;25997;50.214;19.354;2022-08-21T17:33:38;9.20;;;8.30;;
40284;SDS011;25997;50.214;19.354;2022-08-21T17:36:51;8.18;;;7.38;;
40284;SDS011;25997;50.214;19.354;2022-08-21T17:39:54;9.60;;;8.60;;
40284;SDS011;25997;50.214;19.354;2022-08-21T17:42:57;8.07;;;7.05;;
40284;SDS011;25997;50.214;19.354;2022-08-21T17:45:59;8.50;;;6.03;;
40284;SDS011;25997;50.214;19.354;2022-08-21T17:49:04;4.75;;;4.32;;
40284;SDS011;25997;50.214;19.354;2022-08-21T17:52:09;4.65;;;3.60;;
40284;SDS011;25997;50.214;19.354;2022-08-21T17:55:12;6.88;;;3.88;;
40284;SDS011;25997;50.214;19.354;2022-08-21T17:58:16;12.50;;;3.83;;
40284;SDS011;25997;50.214;19.354;2022-08-21T18:01:18;5.93;;;3.72;;
40284;SDS011;25997;50.214;19.354;2022-08-21T18:04:21;8.60;;;3.25;;